createdAt,value
2023-03-24T00:01:22.647Z,13.60
2023-03-24T00:04:09.240Z,13.60
2023-03-24T00:06:57.628Z,13.70
2023-03-24T00:09:45.264Z,13.80
2023-03-24T00:12:32.144Z,13.80
2023-03-24T00:15:21.610Z,13.60
2023-03-24T00:18:10.793Z,13.30
2023-03-24T00:20:58.850Z,13.10
2023-03-24T00:23:47.634Z,13.00
2023-03-24T00:26:34.419Z,12.90
2023-03-24T00:29:21.184Z,12.90
2023-03-24T00:32:08.324Z,12.90
2023-03-24T00:34:55.355Z,13.10
2023-03-24T00:37:42.908Z,13.20
2023-03-24T00:40:31.137Z,13.30
2023-03-24T00:43:17.906Z,13.40
2023-03-24T00:46:07.865Z,13.40
2023-03-24T00:48:57.965Z,13.50
2023-03-24T00:51:45.658Z,13.40
2023-03-24T00:54:32.496Z,13.50
2023-03-24T00:57:22.034Z,13.50
2023-03-24T01:00:13.484Z,13.50
2023-03-24T01:03:03.308Z,13.50
2023-03-24T01:05:50.967Z,13.50
2023-03-24T01:08:38.602Z,13.60
2023-03-24T01:11:27.360Z,13.60
2023-03-24T01:14:16.087Z,13.50
2023-03-24T01:17:03.571Z,13.50
2023-03-24T01:19:50.288Z,13.60
2023-03-24T01:22:37.762Z,13.70
2023-03-24T01:25:25.843Z,13.70
2023-03-24T01:28:13.433Z,13.70
2023-03-24T01:31:01.470Z,13.70
2023-03-24T01:33:48.202Z,13.80
2023-03-24T01:36:34.822Z,13.70
2023-03-24T01:39:21.705Z,13.70
2023-03-24T01:42:11.137Z,13.80
2023-03-24T01:45:03.025Z,13.80
2023-03-24T01:47:51.258Z,13.90
2023-03-24T01:50:39.168Z,14.00
2023-03-24T01:53:27.319Z,14.10
2023-03-24T01:56:14.674Z,14.00
2023-03-24T01:59:07.900Z,13.90
2023-03-24T02:02:13.706Z,14.00
2023-03-24T02:05:16.187Z,14.00
2023-03-24T02:08:10.449Z,13.90
2023-03-24T02:10:58.101Z,13.90
2023-03-24T02:13:52.310Z,13.90
2023-03-24T02:16:57.870Z,14.00
2023-03-24T02:20:21.989Z,13.90
2023-03-24T02:23:46.967Z,14.00
2023-03-24T02:26:54.998Z,14.00
2023-03-24T02:30:21.525Z,14.00
2023-03-24T02:33:39.631Z,14.00
2023-03-24T02:37:13.851Z,13.90
2023-03-24T02:40:27.174Z,13.80
2023-03-24T02:43:38.646Z,13.70
2023-03-24T02:46:28.704Z,13.80
2023-03-24T02:49:27.562Z,13.90
2023-03-24T02:52:21.493Z,13.70
2023-03-24T02:55:17.085Z,13.80
2023-03-24T02:58:09.277Z,13.70
2023-03-24T03:01:15.261Z,13.80
2023-03-24T03:04:34.503Z,13.90
2023-03-24T03:07:25.059Z,13.80
2023-03-24T03:10:17.109Z,13.80
2023-03-24T03:13:11.066Z,13.80
2023-03-24T03:16:00.989Z,13.60
2023-03-24T03:18:52.329Z,13.50
2023-03-24T03:21:43.321Z,13.50
2023-03-24T03:24:35.939Z,13.50
2023-03-24T03:27:27.293Z,13.60
2023-03-24T03:30:19.427Z,13.70
2023-03-24T03:33:09.603Z,13.80
2023-03-24T03:36:03.449Z,13.80
2023-03-24T03:38:56.527Z,13.90
2023-03-24T03:41:44.278Z,13.90
2023-03-24T03:44:32.768Z,13.80
2023-03-24T03:47:22.768Z,13.80
2023-03-24T03:50:11.199Z,13.70
2023-03-24T03:52:58.364Z,13.70
2023-03-24T03:55:45.602Z,13.70
2023-03-24T03:58:33.215Z,13.80
2023-03-24T04:01:22.281Z,13.80
2023-03-24T04:05:06.508Z,13.90
2023-03-24T04:08:19.676Z,13.70
2023-03-24T04:11:37.210Z,13.70
2023-03-24T04:14:40.991Z,13.60
2023-03-24T04:17:58.101Z,13.60
2023-03-24T04:21:48.415Z,13.60
2023-03-24T04:24:49.911Z,13.60
2023-03-24T04:27:46.445Z,13.60
2023-03-24T04:30:44.283Z,13.60
2023-03-24T04:33:45.626Z,13.60
2023-03-24T04:36:42.404Z,13.70
2023-03-24T04:39:50.767Z,13.70
2023-03-24T04:42:40.142Z,13.70
2023-03-24T04:45:26.869Z,13.70
2023-03-24T04:48:35.751Z,13.70
2023-03-24T04:51:34.554Z,13.70
2023-03-24T04:54:25.430Z,13.60
2023-03-24T04:57:18.666Z,13.50
2023-03-24T05:00:12.753Z,13.40
2023-03-24T05:03:00.819Z,13.40
2023-03-24T05:05:49.916Z,13.30
2023-03-24T05:08:37.895Z,13.30
2023-03-24T05:11:24.545Z,13.20
2023-03-24T05:14:20.966Z,13.10
2023-03-24T05:17:07.456Z,13.10
2023-03-24T05:19:54.350Z,13.00
2023-03-24T05:22:41.633Z,13.00
2023-03-24T05:25:29.949Z,13.00
2023-03-24T05:28:16.643Z,13.10
2023-03-24T05:31:03.534Z,13.00
2023-03-24T05:34:09.218Z,13.00
2023-03-24T05:37:12.963Z,13.10
2023-03-24T05:39:59.670Z,13.10
2023-03-24T05:43:03.803Z,13.10
2023-03-24T05:46:00.153Z,13.10
2023-03-24T05:48:51.304Z,13.10
2023-03-24T05:51:39.959Z,13.10
2023-03-24T05:54:27.600Z,13.10
2023-03-24T05:57:23.180Z,13.10
2023-03-24T06:00:44.512Z,13.00
2023-03-24T06:03:40.502Z,12.90
2023-03-24T06:06:32.090Z,12.90
2023-03-24T06:09:19.469Z,12.90
2023-03-24T06:12:06.840Z,12.90
2023-03-24T06:14:56.097Z,12.90
2023-03-24T06:17:46.203Z,13.00
2023-03-24T06:20:45.774Z,13.00
2023-03-24T06:23:39.636Z,13.10
2023-03-24T06:26:30.934Z,13.10
2023-03-24T06:29:19.416Z,13.20
2023-03-24T06:32:07.010Z,13.30
2023-03-24T06:35:01.353Z,13.40
2023-03-24T06:37:58.769Z,13.40
2023-03-24T06:40:45.922Z,13.40
2023-03-24T06:43:33.910Z,13.40
2023-03-24T06:46:20.992Z,13.50
2023-03-24T06:49:09.231Z,13.40
2023-03-24T06:51:57.916Z,13.30
2023-03-24T06:54:47.670Z,13.30
2023-03-24T06:57:34.713Z,13.30
2023-03-24T07:00:48.167Z,13.30
2023-03-24T07:03:56.102Z,13.30
2023-03-24T07:07:06.642Z,13.30
2023-03-24T07:10:04.431Z,13.30
2023-03-24T07:12:51.380Z,13.30
2023-03-24T07:15:38.464Z,13.40
2023-03-24T07:18:26.002Z,13.30
2023-03-24T07:21:18.626Z,13.30
2023-03-24T07:24:08.957Z,13.30
2023-03-24T07:27:09.284Z,13.30
2023-03-24T07:29:56.809Z,13.30
2023-03-24T07:32:56.624Z,13.30
2023-03-24T07:35:44.192Z,13.30
2023-03-24T07:38:31.232Z,13.30
2023-03-24T07:41:24.558Z,13.40
2023-03-24T07:44:18.251Z,13.40
2023-03-24T07:47:09.581Z,13.30
2023-03-24T07:49:56.671Z,13.30
2023-03-24T07:52:47.644Z,13.30
2023-03-24T07:55:39.971Z,13.30
2023-03-24T07:58:32.689Z,13.30
2023-03-24T08:01:42.063Z,13.30
2023-03-24T08:04:30.119Z,13.30
2023-03-24T08:07:24.796Z,13.30
2023-03-24T08:10:12.818Z,13.30
2023-03-24T08:13:00.417Z,13.20
2023-03-24T08:15:47.514Z,13.30
2023-03-24T08:18:35.668Z,13.40
2023-03-24T08:21:22.112Z,13.40
2023-03-24T08:24:08.581Z,13.60
2023-03-24T08:26:58.579Z,13.50
2023-03-24T08:29:45.791Z,13.60
2023-03-24T08:32:32.264Z,13.60
2023-03-24T08:35:23.104Z,13.70
2023-03-24T08:38:11.567Z,13.70
2023-03-24T08:41:02.009Z,13.90
2023-03-24T08:43:48.894Z,13.90
2023-03-24T08:46:36.168Z,14.00
2023-03-24T08:49:22.546Z,13.90
2023-03-24T08:52:10.411Z,14.00
2023-03-24T08:54:57.118Z,14.00
2023-03-24T08:57:44.247Z,14.00
2023-03-24T09:00:31.393Z,14.00
2023-03-24T09:03:22.102Z,14.00
2023-03-24T09:06:09.706Z,14.00
2023-03-24T09:08:58.164Z,14.10
2023-03-24T09:11:45.068Z,14.10
2023-03-24T09:14:31.537Z,14.10
2023-03-24T09:17:18.643Z,14.10
2023-03-24T09:20:11.610Z,14.10
2023-03-24T09:22:58.261Z,14.10
2023-03-24T09:25:47.138Z,14.10
2023-03-24T09:28:34.156Z,14.20
2023-03-24T09:31:20.752Z,14.30
2023-03-24T09:34:07.108Z,14.40
2023-03-24T09:36:53.709Z,14.50
2023-03-24T09:39:40.210Z,14.60
2023-03-24T09:42:31.235Z,14.70
2023-03-24T09:45:21.425Z,14.70
2023-03-24T09:48:12.746Z,14.70
2023-03-24T09:51:02.575Z,14.80
2023-03-24T09:53:56.576Z,15.00
2023-03-24T09:56:48.210Z,15.00
2023-03-24T09:59:40.984Z,15.20
2023-03-24T10:02:30.155Z,15.20
2023-03-24T10:05:19.382Z,15.20
2023-03-24T10:08:13.557Z,15.40
2023-03-24T10:11:04.394Z,15.50
2023-03-24T10:14:03.122Z,15.50
2023-03-24T10:16:58.319Z,15.50
2023-03-24T10:19:47.191Z,15.50
2023-03-24T10:22:40.937Z,15.40
2023-03-24T10:25:35.969Z,15.30
2023-03-24T10:28:28.984Z,15.40
2023-03-24T10:31:18.388Z,15.50
2023-03-24T10:34:07.158Z,15.80
2023-03-24T10:36:54.431Z,15.90
2023-03-24T10:39:44.737Z,15.90
2023-03-24T10:42:35.159Z,15.90
2023-03-24T10:45:29.240Z,15.90
2023-03-24T10:48:35.360Z,15.90
2023-03-24T10:51:27.332Z,16.00
2023-03-24T10:54:18.580Z,16.20
2023-03-24T10:57:08.460Z,16.30
2023-03-24T10:59:57.854Z,16.40
2023-03-24T11:02:45.502Z,16.60
2023-03-24T11:05:35.033Z,16.50
2023-03-24T11:08:28.675Z,16.40
2023-03-24T11:11:28.672Z,16.40
2023-03-24T11:14:25.190Z,16.60
2023-03-24T11:17:15.306Z,16.60
2023-03-24T11:20:02.368Z,16.70
2023-03-24T11:22:58.107Z,16.50
2023-03-24T11:25:51.471Z,16.40
2023-03-24T11:28:41.182Z,16.90
2023-03-24T11:31:30.707Z,17.00
2023-03-24T11:34:20.436Z,16.90
2023-03-24T11:37:13.115Z,16.80
2023-03-24T11:40:23.057Z,16.80
2023-03-24T11:43:21.216Z,16.60
2023-03-24T11:46:15.280Z,16.30
2023-03-24T11:49:02.674Z,16.10
2023-03-24T11:51:52.996Z,16.10
2023-03-24T11:54:39.807Z,16.20
2023-03-24T11:57:41.939Z,16.20
2023-03-24T12:00:35.137Z,16.30
2023-03-24T12:03:51.518Z,16.10
2023-03-24T12:06:51.347Z,16.10
2023-03-24T12:09:45.243Z,15.90
2023-03-24T12:12:39.279Z,15.00
2023-03-24T12:15:47.911Z,14.30
2023-03-24T12:18:44.393Z,13.80
2023-03-24T12:21:47.186Z,13.40
2023-03-24T12:24:53.527Z,13.20
2023-03-24T12:27:53.830Z,13.10
2023-03-24T12:30:50.723Z,13.10
2023-03-24T12:33:49.887Z,13.00
2023-03-24T12:36:47.582Z,13.00
2023-03-24T12:39:37.533Z,12.90
2023-03-24T12:42:25.859Z,12.80
2023-03-24T12:45:26.426Z,12.80
2023-03-24T12:48:44.615Z,12.70
2023-03-24T12:51:42.750Z,12.60
2023-03-24T12:54:40.609Z,12.40
2023-03-24T12:57:31.384Z,12.40
2023-03-24T13:00:23.135Z,12.30
2023-03-24T13:03:15.400Z,12.30
2023-03-24T13:06:17.145Z,12.40
2023-03-24T13:09:10.691Z,12.50
2023-03-24T13:12:01.561Z,12.50
2023-03-24T13:14:54.052Z,12.40
2023-03-24T13:17:49.056Z,12.10
2023-03-24T13:20:41.200Z,12.20
2023-03-24T13:23:47.880Z,12.20
2023-03-24T13:26:39.808Z,12.50
2023-03-24T13:29:50.872Z,12.60
2023-03-24T13:32:41.786Z,12.80
2023-03-24T13:35:39.893Z,12.90
2023-03-24T13:38:34.997Z,13.00
2023-03-24T13:41:27.058Z,13.20
2023-03-24T13:44:20.817Z,13.20
2023-03-24T13:47:13.070Z,13.40
2023-03-24T13:50:03.644Z,13.60
2023-03-24T13:52:51.141Z,13.60
2023-03-24T13:55:40.792Z,13.60
2023-03-24T13:58:45.033Z,13.60
2023-03-24T14:01:34.243Z,13.60
2023-03-24T14:04:29.407Z,13.50
2023-03-24T14:07:32.506Z,13.40
2023-03-24T14:10:42.239Z,13.60
2023-03-24T14:13:38.881Z,13.50
2023-03-24T14:16:44.528Z,13.70
2023-03-24T14:19:33.523Z,13.70
2023-03-24T14:22:25.421Z,13.80
2023-03-24T14:25:29.406Z,14.00
2023-03-24T14:28:21.551Z,14.10
2023-03-24T14:31:24.539Z,14.10
2023-03-24T14:34:16.451Z,14.10
2023-03-24T14:37:06.618Z,14.10
2023-03-24T14:39:53.722Z,14.10
2023-03-24T14:43:03.036Z,14.00
2023-03-24T14:46:01.505Z,14.00
2023-03-24T14:48:58.214Z,14.20
2023-03-24T14:51:48.505Z,14.20
2023-03-24T14:54:38.823Z,14.30
2023-03-24T14:57:26.956Z,14.30
2023-03-24T15:00:22.101Z,14.30
2023-03-24T15:03:23.473Z,14.30
2023-03-24T15:06:16.182Z,14.30
2023-03-24T15:09:06.681Z,14.30
2023-03-24T15:11:53.671Z,14.30
2023-03-24T15:14:40.566Z,14.40
2023-03-24T15:17:27.340Z,14.30
2023-03-24T15:20:23.015Z,14.30
2023-03-24T15:23:18.733Z,14.30
2023-03-24T15:26:14.008Z,14.30
2023-03-24T15:29:02.686Z,14.20
2023-03-24T15:31:51.267Z,14.20
2023-03-24T15:34:41.885Z,14.30
2023-03-24T15:37:34.358Z,14.40
2023-03-24T15:40:38.370Z,14.50
2023-03-24T15:43:25.631Z,14.60
2023-03-24T15:46:23.174Z,14.50
2023-03-24T15:49:22.508Z,14.50
2023-03-24T15:52:27.368Z,14.40
2023-03-24T15:55:26.170Z,14.30
2023-03-24T15:58:27.865Z,14.20
2023-03-24T16:01:17.239Z,14.20
2023-03-24T16:04:06.967Z,14.20
2023-03-24T16:06:57.565Z,14.30
2023-03-24T16:09:44.932Z,14.40
2023-03-24T16:12:32.694Z,14.40
2023-03-24T16:15:20.712Z,14.40
2023-03-24T16:18:07.559Z,14.50
2023-03-24T16:20:54.095Z,14.40
2023-03-24T16:23:42.250Z,14.50
2023-03-24T16:26:30.676Z,14.50
2023-03-24T16:29:19.061Z,14.50
2023-03-24T16:32:07.766Z,14.50
2023-03-24T16:34:54.200Z,14.50
2023-03-24T16:37:42.413Z,14.60
2023-03-24T16:40:35.741Z,14.50
2023-03-24T16:43:23.073Z,14.60
2023-03-24T16:46:15.034Z,14.70
2023-03-24T16:49:05.398Z,14.60
2023-03-24T16:51:52.896Z,14.70
2023-03-24T16:54:39.559Z,14.60
2023-03-24T16:57:26.523Z,14.50
2023-03-24T17:00:14.534Z,14.50
2023-03-24T17:03:01.282Z,14.40
2023-03-24T17:05:51.086Z,14.40
2023-03-24T17:08:38.022Z,14.30
2023-03-24T17:11:28.355Z,14.20
2023-03-24T17:14:15.460Z,14.10
2023-03-24T17:17:04.200Z,14.00
2023-03-24T17:19:50.498Z,14.00
2023-03-24T17:22:38.560Z,13.90
2023-03-24T17:25:29.116Z,13.90
2023-03-24T17:28:17.307Z,13.90
2023-03-24T17:31:04.088Z,13.80
2023-03-24T17:33:51.078Z,13.70
2023-03-24T17:36:37.759Z,13.70
2023-03-24T17:39:25.435Z,13.70
2023-03-24T17:42:12.029Z,13.70
2023-03-24T17:44:58.304Z,13.60
2023-03-24T17:47:45.638Z,13.60
2023-03-24T17:50:33.151Z,13.60
2023-03-24T17:53:25.515Z,13.60
2023-03-24T17:56:13.598Z,13.60
2023-03-24T17:59:00.322Z,13.50
2023-03-24T18:01:47.221Z,13.40
2023-03-24T18:04:34.036Z,13.40
2023-03-24T18:07:21.050Z,13.30
2023-03-24T18:10:09.292Z,13.30
2023-03-24T18:12:57.005Z,13.30
2023-03-24T18:15:44.129Z,13.20
2023-03-24T18:18:30.860Z,13.20
2023-03-24T18:21:17.675Z,13.20
2023-03-24T18:24:06.427Z,13.20
2023-03-24T18:26:52.926Z,13.20
2023-03-24T18:29:41.396Z,13.20
2023-03-24T18:32:28.303Z,13.20
2023-03-24T18:35:19.739Z,13.20
2023-03-24T18:38:06.506Z,13.10
2023-03-24T18:40:59.061Z,13.10
2023-03-24T18:43:47.888Z,13.10
2023-03-24T18:46:37.567Z,13.00
2023-03-24T18:49:24.247Z,13.00
2023-03-24T18:52:10.864Z,12.90
2023-03-24T18:54:57.303Z,12.90
2023-03-24T18:57:44.147Z,12.90
2023-03-24T19:00:30.643Z,12.80
2023-03-24T19:03:19.686Z,12.70
2023-03-24T19:06:07.744Z,12.70
2023-03-24T19:08:54.692Z,12.60
2023-03-24T19:11:43.462Z,12.70
2023-03-24T19:14:30.130Z,12.60
2023-03-24T19:17:16.681Z,12.60
2023-03-24T19:20:07.280Z,12.60
2023-03-24T19:22:54.575Z,12.60
2023-03-24T19:25:41.977Z,12.60
2023-03-24T19:28:32.456Z,12.60
2023-03-24T19:31:20.910Z,12.60
2023-03-24T19:34:07.789Z,12.70
2023-03-24T19:36:56.658Z,12.60
2023-03-24T19:39:43.450Z,12.60
2023-03-24T19:42:33.291Z,12.60
2023-03-24T19:45:20.470Z,12.50
2023-03-24T19:48:07.345Z,12.50
2023-03-24T19:50:55.716Z,12.50
2023-03-24T19:53:43.658Z,12.50
2023-03-24T19:56:30.985Z,12.40
2023-03-24T19:59:17.739Z,12.40
2023-03-24T20:02:04.594Z,12.40
2023-03-24T20:04:54.980Z,12.40
2023-03-24T20:07:41.983Z,12.40
2023-03-24T20:10:29.951Z,12.50
2023-03-24T20:13:16.557Z,12.50
2023-03-24T20:16:04.164Z,12.50
2023-03-24T20:18:51.166Z,12.50
2023-03-24T20:21:37.606Z,12.50
2023-03-24T20:24:24.875Z,12.40
2023-03-24T20:27:12.755Z,12.40
2023-03-24T20:29:59.321Z,12.30
2023-03-24T20:32:45.876Z,12.30
2023-03-24T20:38:19.828Z,12.10
2023-03-24T20:41:07.623Z,12.10
2023-03-24T20:43:56.262Z,12.10
2023-03-24T20:46:44.866Z,12.10
2023-03-24T20:49:33.805Z,12.10
2023-03-24T20:52:20.761Z,12.10
2023-03-24T20:55:08.853Z,12.10
2023-03-24T20:57:55.874Z,12.10
2023-03-24T21:00:47.635Z,12.10
2023-03-24T21:03:34.761Z,12.20
2023-03-24T21:06:22.135Z,12.30
2023-03-24T21:09:08.945Z,12.40
2023-03-24T21:11:55.879Z,12.40
2023-03-24T21:14:46.707Z,12.50
2023-03-24T21:17:35.724Z,12.40
2023-03-24T21:20:26.619Z,12.40
2023-03-24T21:23:13.318Z,12.40
2023-03-24T21:25:59.722Z,12.40
2023-03-24T21:28:46.878Z,12.40
2023-03-24T21:31:33.822Z,12.40
2023-03-24T21:34:21.424Z,12.40
2023-03-24T21:37:09.604Z,12.40
2023-03-24T21:39:56.282Z,12.30
2023-03-24T21:42:43.509Z,12.30
2023-03-24T21:45:32.316Z,12.40
2023-03-24T21:48:18.973Z,12.40
2023-03-24T21:51:07.283Z,12.40
2023-03-24T21:53:55.861Z,12.40
2023-03-24T21:56:42.318Z,12.40
2023-03-24T21:59:31.652Z,12.40
2023-03-24T22:02:19.174Z,12.40
2023-03-24T22:05:07.003Z,12.40
2023-03-24T22:07:55.851Z,12.40
2023-03-24T22:10:45.809Z,12.50
2023-03-24T22:13:33.694Z,12.60
2023-03-24T22:16:20.510Z,12.60
2023-03-24T22:19:06.808Z,12.60
2023-03-24T22:22:00.355Z,12.60
2023-03-24T22:24:47.995Z,12.60
2023-03-24T22:27:35.039Z,12.50
2023-03-24T22:30:22.135Z,12.60
2023-03-24T22:33:08.564Z,12.50
2023-03-24T22:35:57.149Z,12.50
2023-03-24T22:38:43.880Z,12.10
2023-03-24T22:41:31.453Z,11.70
2023-03-24T22:44:19.670Z,11.40
2023-03-24T22:47:06.361Z,11.20
2023-03-24T22:49:52.755Z,11.00
2023-03-24T22:52:39.551Z,10.90
2023-03-24T22:55:27.093Z,10.80
2023-03-24T22:58:15.610Z,10.90
2023-03-24T23:01:03.525Z,10.90
2023-03-24T23:03:50.299Z,10.90
2023-03-24T23:06:36.858Z,10.90
2023-03-24T23:09:23.493Z,10.80
2023-03-24T23:12:11.186Z,10.90
2023-03-24T23:14:59.139Z,11.00
2023-03-24T23:17:45.910Z,10.90
2023-03-24T23:20:33.030Z,11.00
2023-03-24T23:23:19.533Z,10.90
2023-03-24T23:26:07.765Z,10.80
2023-03-24T23:28:54.005Z,10.70
2023-03-24T23:31:41.770Z,10.70
2023-03-24T23:34:28.719Z,10.80
2023-03-24T23:37:18.241Z,10.80
2023-03-24T23:40:09.854Z,10.70
2023-03-24T23:42:56.787Z,10.70
2023-03-24T23:45:46.505Z,10.70
2023-03-24T23:48:34.959Z,10.70
2023-03-24T23:51:22.093Z,10.70
2023-03-24T23:54:09.127Z,10.70
2023-03-24T23:56:56.232Z,10.70
2023-03-24T23:59:43.203Z,10.70
